Flight Track Log - Related Links

Times and Time Zones

All times are in EDT time to prevent confusion due to time zone crossing. See the BOE272 flight status page for this flight to view local times or setup timezone preferences in your user account.

Time Position Orientation Groundspeed Altitude Reporting Facility
EDT Latitude Longitude Course Direction KTS km/h feet Rate Location/Type
Mon 15:11:41 47.9247 -122.2861 358° North 173 320 1.800  Level Seattle Center
Mon 15:12:33 47.9675 -122.2881 358° North 186 344 3.600 2.206 Climbing Seattle Center
Mon 15:12:49 47.9864 -122.3014 335° Northwest 240 444 4.300 2.164 Climbing Seattle Center
Mon 15:13:34 47.9867 -122.3697 270° West 273 505 5.800 3.057 Climbing Seattle Center
Mon 15:14:35 47.9464 -122.4625 237° Southwest 274 507 9.700 3.174 Climbing Seattle Center
Mon 15:15:35 47.9006 -122.5644 236° Southwest 300 555 12.200 2.628 Climbing Seattle Center
Mon 15:16:36 47.8550 -122.6883 241° Southwest 358 663 15.000 3.000 Climbing Seattle Center
Mon 15:17:37 47.8906 -122.8556 288° West 365 676 18.300 3.049 Climbing Seattle Center
Mon 15:18:38 47.9258 -122.9986 290° West 373 690 21.200 2.557 Climbing Seattle Center
Mon 15:19:39 47.9603 -123.1492 289° West 385 713 23.500 2.115 Climbing Seattle Center
Mon 15:20:40 47.9969 -123.3072 289° West 403 747 25.500 1.377 Climbing Seattle Center
Mon 15:21:41 48.0356 -123.4703 290° West 419 776 26.300 1.918 Climbing Seattle Center
Mon 15:22:42 48.0786 -123.6528 290° West 427 790 29.400 1.918 Climbing Seattle Center
Mon 15:23:43 48.1167 -123.8214 289° West 432 800 30.200 1.082 Climbing Seattle Center
Mon 15:24:44 48.1583 -124.0006 289° West 453 838 31.600 1.328 Climbing Seattle Center
Mon 15:25:45 48.1997 -124.1836 289° West 463 858 32.900 1.328 Climbing Seattle Center
Mon 15:26:46 48.2225 -124.3744 280° West 473 875 34.300 1.279 Climbing Seattle Center
Mon 15:27:47 48.2369 -124.5606 277° West 479 887 35.500 1.328 Climbing Seattle Center
Mon 15:28:48 48.3478 -124.6258 339° North 480 888 37.000 1.328 Climbing Seattle Center
Mon 15:29:49 48.4069 -124.8192 295° West 470 871 38.200 984 Climbing Seattle Center
Mon 15:30:50 48.3431 -124.9664 237° Southwest 464 859 39.000 397 Climbing Seattle Center
Mon 15:31:50 48.2172 -124.9706 181° South 480 888 39.000 -50 Level Seattle Center
Mon 15:32:51 48.0950 -124.8894 156° South 489 906 38.900  Descending Seattle Center
Mon 15:33:52 47.9719 -124.8075 156° South 489 906 39.000 49 Climbing Seattle Center
Mon 15:34:53 47.8478 -124.7267 156° South 491 909 39.000 -49 Level Seattle Center
Mon 15:35:54 47.6992 -124.6306 156° South 489 906 38.900  Descending Seattle Center
Mon 15:36:55 47.5753 -124.5500 156° South 489 906 39.000  Climbing Seattle Center
Mon 15:37:56 47.4528 -124.4725 157° South 484 896 38.900 -49 Descending Seattle Center
Mon 15:38:57 47.3308 -124.3936 156° South 480 888 38.900  Level Seattle Center
Mon 15:39:58 47.2097 -124.3164 157° South 477 884 38.900 49 Level Seattle Center
Mon 15:40:59 47.0875 -124.2400 157° South 480 888 39.000  Climbing Seattle Center
Mon 15:42:00 46.9644 -124.1636 157° South 481 892 38.900  Descending Seattle Center
Mon 15:43:01 46.8367 -124.1103 164° South 480 888 39.000 49 Climbing Seattle Center
Mon 15:44:02 46.7069 -124.0675 167° South 478 885 39.000  Level Seattle Center
Mon 15:45:03 46.5769 -124.0233 167° South 479 887 39.000  Level Seattle Center
Mon 15:46:04 46.4461 -123.9794 167° South 483 895 39.000 -49 Level Seattle Center
Mon 15:47:05 46.3017 -123.9294 167° South 480 888 38.900  Descending Seattle Center
Mon 15:48:06 46.1719 -123.8881 168° South 479 887 39.000  Climbing Seattle Center
Mon 15:49:07 46.0419 -123.8944 182° South 470 871 38.900 -49 Descending Seattle Center
Mon 15:50:08 45.9125 -123.9108 185° South 470 871 38.900 49 Level Seattle Center
Mon 15:51:09 45.7822 -123.9269 185° South 472 874 39.000 49 Climbing Seattle Center
Mon 15:52:10 45.6522 -123.9406 184° South 471 872 39.000  Level Seattle Center
Mon 15:53:11 45.5231 -123.9550 184° South 469 869 39.000 -49 Level Seattle Center
Mon 15:54:12 45.3925 -123.9689 184° South 472 874 38.900  Descending Seattle Center
Mon 15:55:13 45.2375 -123.9881 185° South 470 871 39.000 49 Climbing Seattle Center
Mon 15:56:14 45.1092 -124.0028 185° South 471 872 39.000 -49 Level Seattle Center
Mon 15:57:15 44.9794 -124.0186 185° South 475 880 38.900 -49 Descending Seattle Center
Mon 15:58:16 44.8542 -124.0331 185° South 462 856 38.900 49 Level Seattle Center
Mon 15:59:17 44.7261 -124.0469 184° South 469 869 39.000  Climbing Seattle Center
Mon 16:00:17 44.6003 -124.0261 173° South 485 898 38.900  Descending Seattle Center
Mon 16:01:18 44.5647 -123.8522 106° East 514 953 39.000  Climbing Seattle Center
Mon 16:02:19 44.6717 -123.7364 38° Northeast 517 958 38.900  Descending Seattle Center
Mon 16:03:20 44.8142 -123.7264 North 511 946 39.000 49 Climbing Seattle Center
Mon 16:04:21 44.9592 -123.7403 356° North 508 941 39.000 -49 Level Seattle Center
Mon 16:05:22 45.1042 -123.7589 355° North 512 948 38.900  Descending Seattle Center
Mon 16:06:23 45.2458 -123.7742 356° North 510 945 39.000 49 Climbing Seattle Center
Mon 16:07:24 45.3892 -123.7911 355° North 513 950 39.000 -98 Level Seattle Center
Mon 16:08:25 45.5597 -123.8117 355° North 514 953 38.800  Descending Seattle Center
Mon 16:09:26 45.6983 -123.8275 355° North 501 929 39.000 98 Climbing Seattle Center
Mon 16:10:27 45.8344 -123.8439 355° North 492 911 39.000 -49 Level Seattle Center
Mon 16:11:28 45.9686 -123.8592 355° North 487 901 38.900  Descending Seattle Center
Mon 16:12:29 46.1025 -123.8756 355° North 485 898 39.000 49 Climbing Seattle Center
Mon 16:13:30 46.2350 -123.9031 352° North 483 895 39.000  Level Seattle Center
Mon 16:14:31 46.3653 -123.9528 345° North 484 896 39.000  Level Seattle Center
Mon 16:15:32 46.5081 -123.9994 347° North 485 898 39.000  Level Seattle Center
Mon 16:16:33 46.6378 -124.0439 347° North 482 893 39.000  Level Seattle Center
Mon 16:17:34 46.7658 -124.0872 347° North 474 877 39.000  Level Seattle Center
Mon 16:18:34 46.8908 -124.1311 347° North 466 863 39.000 -50 Level Seattle Center
Mon 16:19:35 47.0153 -124.1744 347° North 461 855 38.900  Descending Seattle Center
Mon 16:20:36 47.1406 -124.2181 347° North 463 858 39.000 49 Climbing Seattle Center
Mon 16:21:37 47.2653 -124.2600 347° North 462 856 39.000  Level Seattle Center
Mon 16:22:38 47.3903 -124.2614 360° North 465 861 39.000  Level Seattle Center
Mon 16:23:39 47.4389 -124.0933 67° East 470 871 39.000  Level Seattle Center
Mon 16:24:40 47.4467 -123.8744 87° East 476 882 39.000  Level Seattle Center
Mon 16:25:41 47.4531 -123.6786 87° East 482 893 39.000  Level Seattle Center
Mon 16:26:42 47.4586 -123.4842 88° East 482 893 39.000 -295 Level Seattle Center
Mon 16:27:43 47.4950 -123.2922 74° East 489 906 38.400 -787 Descending Seattle Center
Mon 16:28:44 47.5469 -123.0983 68° East 517 958 37.400 -1.918 Descending Seattle Center
Mon 16:29:45 47.6622 -123.0092 28° Northeast 475 880 34.500 -3.885 Descending Seattle Center
Mon 16:30:46 47.7814 -122.9742 11° North 444 822 29.500 -4.033 Descending Seattle Center
Mon 16:31:47 47.9114 -122.9725 360° North 391 724 26.300 -3.590 Descending Seattle Center
Mon 16:32:48 48.0044 -122.9750 359° North 345 639 22.200 -3.787 Descending Seattle Center
Mon 16:33:49 48.0989 -122.9978 351° North 353 653 18.600 -3.246 Descending Seattle Center
Mon 16:34:50 48.1389 -123.1031 300° West 299 554 15.600 -1.770 Descending Seattle Center
Mon 16:35:51 48.1517 -123.2181 279° West 283 525 15.000 -295 Descending Seattle Center
Mon 16:36:52 48.1642 -123.3278 280° West 246 455 15.000 -49 Level Seattle Center
Mon 16:37:53 48.1725 -123.4006 280° West 189 349 14.900  Descending Seattle Center
Mon 16:38:54 48.1792 -123.4614 279° West 153 283 15.000 49 Climbing Seattle Center
Mon 16:39:55 48.1858 -123.5233 279° West 151 280 15.000  Level Seattle Center
Mon 16:40:56 48.1925 -123.5897 279° West 157 291 15.000  Level Seattle Center
Mon 16:41:57 48.2008 -123.6667 279° West 181 335 15.000 -49 Level Seattle Center
Mon 16:42:58 48.2061 -123.7269 278° West 157 291 14.900  Descending Seattle Center
Mon 16:43:59 48.2133 -123.8019 278° West 176 327 15.000 49 Climbing Seattle Center
Mon 16:45:00 48.2189 -123.9100 274° West 235 435 15.000  Level Seattle Center
Mon 16:46:01 48.2247 -124.0133 275° West 252 467 15.000  Level Seattle Center
Mon 16:47:02 48.2311 -124.1156 275° West 249 462 15.000  Level Seattle Center
Mon 16:48:03 48.2392 -124.2183 277° West 248 459 15.000  Level Seattle Center
Mon 16:49:04 48.2528 -124.3219 281° West 250 463 15.000  Level Seattle Center
Mon 16:50:05 48.2692 -124.4467 281° West 252 467 15.000  Level Seattle Center
Mon 16:51:06 48.2833 -124.5506 282° West 253 468 15.000  Level Seattle Center
Mon 16:52:07 48.2972 -124.6561 281° West 253 468 15.000  Level Seattle Center
Mon 16:53:08 48.2919 -124.7650 266° West 257 476 15.000 -49 Level Seattle Center
Mon 16:54:09 48.2942 -124.8722 272° West 266 492 14.900 -49 Descending Seattle Center
Mon 16:55:10 48.3342 -124.8186 42° Northeast 275 509 14.900 49 Level Seattle Center
Mon 16:56:11 48.3175 -124.7128 103° East 287 531 15.000 38 Climbing Seattle Center
Mon 16:57:49 48.2853 -124.5178 104° East 273 505 15.000  Level Seattle Center
Mon 16:58:50 48.2653 -124.3983 104° East 296 549 15.000  Level Seattle Center
Mon 16:59:51 48.2461 -124.2800 104° East 295 546 15.000  Level Seattle Center
Mon 17:00:52 48.2314 -124.1514 100° East 304 563 15.000 -49 Level Seattle Center
Mon 17:01:53 48.2064 -123.9781 102° East 344 637 14.900  Descending Seattle Center
Mon 17:02:54 48.1814 -123.8161 103° East 392 726 15.000 -495 Climbing Seattle Center
Mon 17:03:42 48.1617 -123.6878 103° East 398 737 14.000 -1.918 Descending Seattle Center
Mon 17:04:56 48.1344 -123.4981 102° East 392 726 11.100 -1.778 Descending Seattle Center
Mon 17:05:57 48.1122 -123.3544 103° East 363 673 10.000 -689 Descending Seattle Center
Mon 17:06:58 48.0922 -123.2267 103° East 313 579 9.700 -639 Descending Seattle Center
Mon 17:07:59 48.0756 -123.1175 103° East 289 536 8.700 -1.082 Descending Seattle Center
Mon 17:09:00 48.0586 -123.0075 103° East 277 513 7.500 -1.443 Descending Seattle Center
Mon 17:09:18 48.0500 -122.9611 106° East 267 494 6.800 -1.375 Descending Seattle Center
Mon 17:09:48 48.0417 -122.9092 103° East 265 491 6.400 -1.121 Descending Seattle Center
Mon 17:10:49 48.0392 -122.8083 92° East 258 478 5.100 -689 Descending Seattle Center
Mon 17:11:50 48.0619 -122.7031 72° East 245 454 5.000 -49 Descending Seattle Center
Mon 17:12:51 48.0844 -122.6047 71° East 243 451 5.000 -148 Level Seattle Center
Mon 17:13:52 48.0953 -122.5058 81° East 226 418 4.700 -533 Descending Seattle Center
Mon 17:15:06 48.0869 -122.4008 97° East 220 407 3.800 -843 Descending Seattle Center
Mon 17:15:53 48.0828 -122.3403 96° East 179 332 3.000 -444 Descending Seattle Center
Mon 17:16:54 48.0528 -122.2908 132° Southeast 183 340 3.000 -344 Level Seattle Center
Mon 17:17:55 48.0053 -122.2875 177° South 150 278 2.300 -738 Descending Seattle Center
Mon 17:18:56 47.9650 -122.2867 179° South 142 262 1.500 -662 Descending Seattle Center
Mon 17:20:11 47.9194 -122.2853 179° South 145 269 800 -560 Descending Seattle Center
Mon 17:22:00 47.9070 -122.2816 142° Southeast  Level Estimated

Login

Don't have an account? Register now (free) for customized features, flight alerts, and more!